sensor_id;sensor_type;location;lat;lon;timestamp;temperature;humidity
40822;DHT22;26542;50.836;5.356;2022-10-16T00:00:33;15.40;99.90
40822;DHT22;26542;50.836;5.356;2022-10-16T00:03:01;15.50;99.90
40822;DHT22;26542;50.836;5.356;2022-10-16T00:05:30;15.50;99.90
40822;DHT22;26542;50.836;5.356;2022-10-16T00:07:56;15.50;99.90
40822;DHT22;26542;50.836;5.356;2022-10-16T00:10:24;15.40;99.90
40822;DHT22;26542;50.836;5.356;2022-10-16T00:12:50;15.50;99.90
40822;DHT22;26542;50.836;5.356;2022-10-16T00:15:16;15.40;99.90
40822;DHT22;26542;50.836;5.356;2022-10-16T00:17:43;15.40;99.90
40822;DHT22;26542;50.836;5.356;2022-10-16T00:20:10;15.40;99.90
40822;DHT22;26542;50.836;5.356;2022-10-16T00:22:35;15.50;99.90
40822;DHT22;26542;50.836;5.356;2022-10-16T00:25:02;15.50;99.90
40822;DHT22;26542;50.836;5.356;2022-10-16T00:27:27;15.30;99.90
40822;DHT22;26542;50.836;5.356;2022-10-16T00:29:53;15.40;99.90
40822;DHT22;26542;50.836;5.356;2022-10-16T00:32:20;15.30;99.90
40822;DHT22;26542;50.836;5.356;2022-10-16T00:34:48;15.40;99.90
40822;DHT22;26542;50.836;5.356;2022-10-16T00:37:14;15.30;99.90
40822;DHT22;26542;50.836;5.356;2022-10-16T00:39:41;15.30;99.90
40822;DHT22;26542;50.836;5.356;2022-10-16T00:42:13;15.30;99.90
40822;DHT22;26542;50.836;5.356;2022-10-16T00:44:47;15.30;99.90
40822;DHT22;26542;50.836;5.356;2022-10-16T00:47:29;15.20;99.90
40822;DHT22;26542;50.836;5.356;2022-10-16T00:50:06;15.20;99.90
40822;DHT22;26542;50.836;5.356;2022-10-16T00:52:33;15.20;99.90
40822;DHT22;26542;50.836;5.356;2022-10-16T00:55:03;15.10;99.90
40822;DHT22;26542;50.836;5.356;2022-10-16T00:57:30;15.20;99.90
40822;DHT22;26542;50.836;5.356;2022-10-16T00:59:57;15.20;99.90
40822;DHT22;26542;50.836;5.356;2022-10-16T01:02:23;15.20;99.90
40822;DHT22;26542;50.836;5.356;2022-10-16T01:04:58;15.20;99.90
40822;DHT22;26542;50.836;5.356;2022-10-16T01:07:36;15.20;99.90
40822;DHT22;26542;50.836;5.356;2022-10-16T01:13:01;15.00;99.90
40822;DHT22;26542;50.836;5.356;2022-10-16T01:21:43;15.00;99.90
40822;DHT22;26542;50.836;5.356;2022-10-16T01:24:31;15.00;99.90
40822;DHT22;26542;50.836;5.356;2022-10-16T01:27:23;15.00;99.90
40822;DHT22;26542;50.836;5.356;2022-10-16T01:29:56;15.00;99.90
40822;DHT22;26542;50.836;5.356;2022-10-16T01:32:47;14.90;99.90
40822;DHT22;26542;50.836;5.356;2022-10-16T01:35:28;14.90;99.90
40822;DHT22;26542;50.836;5.356;2022-10-16T01:38:18;14.80;99.90
40822;DHT22;26542;50.836;5.356;2022-10-16T01:40:50;14.90;99.90
40822;DHT22;26542;50.836;5.356;2022-10-16T01:43:36;15.00;99.90
40822;DHT22;26542;50.836;5.356;2022-10-16T01:46:05;14.80;99.90
40822;DHT22;26542;50.836;5.356;2022-10-16T01:48:34;14.80;99.90
40822;DHT22;26542;50.836;5.356;2022-10-16T01:51:11;14.90;99.90
40822;DHT22;26542;50.836;5.356;2022-10-16T01:53:43;14.90;99.90
40822;DHT22;26542;50.836;5.356;2022-10-16T01:56:23;14.80;99.90
40822;DHT22;26542;50.836;5.356;2022-10-16T01:59:10;14.80;99.90
40822;DHT22;26542;50.836;5.356;2022-10-16T02:06:53;14.80;99.90
40822;DHT22;26542;50.836;5.356;2022-10-16T02:09:19;14.80;99.90
40822;DHT22;26542;50.836;5.356;2022-10-16T02:11:46;14.80;99.90
40822;DHT22;26542;50.836;5.356;2022-10-16T02:14:14;14.90;99.90
40822;DHT22;26542;50.836;5.356;2022-10-16T02:16:44;14.80;99.90
40822;DHT22;26542;50.836;5.356;2022-10-16T02:19:18;14.90;99.90
40822;DHT22;26542;50.836;5.356;2022-10-16T02:21:50;15.00;99.90
40822;DHT22;26542;50.836;5.356;2022-10-16T02:24:35;15.00;99.90
40822;DHT22;26542;50.836;5.356;2022-10-16T02:27:24;14.80;99.90
40822;DHT22;26542;50.836;5.356;2022-10-16T02:32:42;14.80;99.90
40822;DHT22;26542;50.836;5.356;2022-10-16T02:35:11;14.80;99.90
40822;DHT22;26542;50.836;5.356;2022-10-16T02:37:39;14.80;99.90
40822;DHT22;26542;50.836;5.356;2022-10-16T02:40:10;14.80;99.90
40822;DHT22;26542;50.836;5.356;2022-10-16T02:42:39;14.80;99.90
40822;DHT22;26542;50.836;5.356;2022-10-16T02:45:08;14.80;99.90
40822;DHT22;26542;50.836;5.356;2022-10-16T02:47:35;14.80;99.90
40822;DHT22;26542;50.836;5.356;2022-10-16T02:50:01;14.90;99.90
40822;DHT22;26542;50.836;5.356;2022-10-16T02:52:27;14.90;99.90
40822;DHT22;26542;50.836;5.356;2022-10-16T02:54:53;14.90;99.90
40822;DHT22;26542;50.836;5.356;2022-10-16T02:57:20;14.90;99.90
40822;DHT22;26542;50.836;5.356;2022-10-16T02:59:46;14.90;99.90
40822;DHT22;26542;50.836;5.356;2022-10-16T03:02:14;15.00;99.90
40822;DHT22;26542;50.836;5.356;2022-10-16T03:04:41;14.90;99.90
40822;DHT22;26542;50.836;5.356;2022-10-16T03:07:07;14.80;99.90
40822;DHT22;26542;50.836;5.356;2022-10-16T03:09:33;14.80;99.90
40822;DHT22;26542;50.836;5.356;2022-10-16T03:11:59;14.80;99.90
40822;DHT22;26542;50.836;5.356;2022-10-16T03:14:25;14.90;99.90
40822;DHT22;26542;50.836;5.356;2022-10-16T03:16:51;14.90;99.90
40822;DHT22;26542;50.836;5.356;2022-10-16T03:19:18;14.90;99.90
40822;DHT22;26542;50.836;5.356;2022-10-16T03:21:47;14.80;99.90
40822;DHT22;26542;50.836;5.356;2022-10-16T03:24:13;14.80;99.90
40822;DHT22;26542;50.836;5.356;2022-10-16T03:26:39;14.80;99.90
40822;DHT22;26542;50.836;5.356;2022-10-16T03:29:13;14.80;99.90
40822;DHT22;26542;50.836;5.356;2022-10-16T03:31:41;14.70;99.90
40822;DHT22;26542;50.836;5.356;2022-10-16T03:34:07;14.70;99.90
40822;DHT22;26542;50.836;5.356;2022-10-16T03:36:33;14.70;99.90
40822;DHT22;26542;50.836;5.356;2022-10-16T03:39:00;14.60;99.90
40822;DHT22;26542;50.836;5.356;2022-10-16T03:41:28;14.60;99.90
40822;DHT22;26542;50.836;5.356;2022-10-16T03:43:54;14.50;99.90
40822;DHT22;26542;50.836;5.356;2022-10-16T03:46:21;14.50;99.90
40822;DHT22;26542;50.836;5.356;2022-10-16T03:48:50;14.60;99.90
40822;DHT22;26542;50.836;5.356;2022-10-16T03:51:16;14.50;99.90
40822;DHT22;26542;50.836;5.356;2022-10-16T03:53:42;14.50;99.90
40822;DHT22;26542;50.836;5.356;2022-10-16T03:56:10;14.40;99.90
40822;DHT22;26542;50.836;5.356;2022-10-16T03:58:35;14.50;99.90
40822;DHT22;26542;50.836;5.356;2022-10-16T04:01:04;14.50;99.90
40822;DHT22;26542;50.836;5.356;2022-10-16T04:03:31;14.40;99.90
40822;DHT22;26542;50.836;5.356;2022-10-16T04:05:57;14.40;99.90
40822;DHT22;26542;50.836;5.356;2022-10-16T04:08:23;14.60;99.90
40822;DHT22;26542;50.836;5.356;2022-10-16T04:10:49;14.60;99.90
40822;DHT22;26542;50.836;5.356;2022-10-16T04:13:17;14.50;99.90
40822;DHT22;26542;50.836;5.356;2022-10-16T04:15:45;14.60;99.90
40822;DHT22;26542;50.836;5.356;2022-10-16T04:18:12;14.60;99.90
40822;DHT22;26542;50.836;5.356;2022-10-16T04:20:38;14.50;99.90
40822;DHT22;26542;50.836;5.356;2022-10-16T04:23:04;14.40;99.90
40822;DHT22;26542;50.836;5.356;2022-10-16T04:25:31;14.40;99.90
40822;DHT22;26542;50.836;5.356;2022-10-16T04:27:58;14.50;99.90
40822;DHT22;26542;50.836;5.356;2022-10-16T04:30:24;14.40;99.90
40822;DHT22;26542;50.836;5.356;2022-10-16T04:32:51;14.40;99.90
40822;DHT22;26542;50.836;5.356;2022-10-16T04:35:19;14.40;99.90
40822;DHT22;26542;50.836;5.356;2022-10-16T04:37:50;14.50;99.90
40822;DHT22;26542;50.836;5.356;2022-10-16T04:40:16;14.40;99.90
40822;DHT22;26542;50.836;5.356;2022-10-16T04:42:44;14.50;99.90
40822;DHT22;26542;50.836;5.356;2022-10-16T04:45:10;14.60;99.90
40822;DHT22;26542;50.836;5.356;2022-10-16T04:47:36;14.60;99.90
40822;DHT22;26542;50.836;5.356;2022-10-16T04:50:03;14.70;99.90
40822;DHT22;26542;50.836;5.356;2022-10-16T04:52:30;14.60;99.90
40822;DHT22;26542;50.836;5.356;2022-10-16T04:54:57;14.50;99.90
40822;DHT22;26542;50.836;5.356;2022-10-16T04:57:26;14.60;99.90
40822;DHT22;26542;50.836;5.356;2022-10-16T04:59:52;14.60;99.90
40822;DHT22;26542;50.836;5.356;2022-10-16T05:02:19;14.60;99.90
40822;DHT22;26542;50.836;5.356;2022-10-16T05:04:45;14.50;99.90
40822;DHT22;26542;50.836;5.356;2022-10-16T05:07:13;14.50;99.90
40822;DHT22;26542;50.836;5.356;2022-10-16T05:09:42;14.50;99.90
40822;DHT22;26542;50.836;5.356;2022-10-16T05:12:08;14.60;99.90
40822;DHT22;26542;50.836;5.356;2022-10-16T05:14:34;14.60;99.90
40822;DHT22;26542;50.836;5.356;2022-10-16T05:17:04;14.60;99.90
40822;DHT22;26542;50.836;5.356;2022-10-16T05:19:30;14.50;99.90
40822;DHT22;26542;50.836;5.356;2022-10-16T05:21:57;14.40;99.90
40822;DHT22;26542;50.836;5.356;2022-10-16T05:24:23;14.50;99.90
40822;DHT22;26542;50.836;5.356;2022-10-16T05:26:53;14.50;99.90
40822;DHT22;26542;50.836;5.356;2022-10-16T05:29:19;14.50;99.90
40822;DHT22;26542;50.836;5.356;2022-10-16T05:31:49;14.40;99.90
40822;DHT22;26542;50.836;5.356;2022-10-16T05:34:17;14.50;99.90
40822;DHT22;26542;50.836;5.356;2022-10-16T05:36:46;14.50;99.90
40822;DHT22;26542;50.836;5.356;2022-10-16T05:39:13;14.50;99.90
40822;DHT22;26542;50.836;5.356;2022-10-16T05:41:40;14.50;99.90
40822;DHT22;26542;50.836;5.356;2022-10-16T05:44:06;14.50;99.90
40822;DHT22;26542;50.836;5.356;2022-10-16T05:46:33;14.60;99.90
40822;DHT22;26542;50.836;5.356;2022-10-16T05:49:00;14.60;99.90
40822;DHT22;26542;50.836;5.356;2022-10-16T05:51:26;14.60;99.90
40822;DHT22;26542;50.836;5.356;2022-10-16T05:53:54;14.50;99.90
40822;DHT22;26542;50.836;5.356;2022-10-16T05:56:23;14.50;99.90
40822;DHT22;26542;50.836;5.356;2022-10-16T05:58:52;14.50;99.90
40822;DHT22;26542;50.836;5.356;2022-10-16T06:01:19;14.50;99.90
40822;DHT22;26542;50.836;5.356;2022-10-16T06:03:46;14.60;99.90
40822;DHT22;26542;50.836;5.356;2022-10-16T06:06:17;14.60;99.90
40822;DHT22;26542;50.836;5.356;2022-10-16T06:08:46;14.50;99.90
40822;DHT22;26542;50.836;5.356;2022-10-16T06:11:15;14.40;99.90
40822;DHT22;26542;50.836;5.356;2022-10-16T06:13:48;14.50;99.90
40822;DHT22;26542;50.836;5.356;2022-10-16T06:16:22;14.50;99.90
40822;DHT22;26542;50.836;5.356;2022-10-16T06:18:53;14.50;99.90
40822;DHT22;26542;50.836;5.356;2022-10-16T06:21:29;14.50;99.90
40822;DHT22;26542;50.836;5.356;2022-10-16T06:24:03;14.50;99.90
40822;DHT22;26542;50.836;5.356;2022-10-16T06:26:32;14.40;99.90
40822;DHT22;26542;50.836;5.356;2022-10-16T06:29:00;14.40;99.90
40822;DHT22;26542;50.836;5.356;2022-10-16T06:31:26;14.40;99.90
40822;DHT22;26542;50.836;5.356;2022-10-16T06:33:58;14.40;99.90
40822;DHT22;26542;50.836;5.356;2022-10-16T06:36:25;14.50;99.90
40822;DHT22;26542;50.836;5.356;2022-10-16T06:38:52;14.40;99.90
40822;DHT22;26542;50.836;5.356;2022-10-16T06:41:20;14.40;99.90
40822;DHT22;26542;50.836;5.356;2022-10-16T06:43:48;14.40;99.90
40822;DHT22;26542;50.836;5.356;2022-10-16T06:46:16;14.50;99.90
40822;DHT22;26542;50.836;5.356;2022-10-16T06:48:43;14.50;99.90
40822;DHT22;26542;50.836;5.356;2022-10-16T06:51:17;14.60;99.90
40822;DHT22;26542;50.836;5.356;2022-10-16T06:53:46;14.50;99.90
40822;DHT22;26542;50.836;5.356;2022-10-16T06:56:25;14.50;99.90
40822;DHT22;26542;50.836;5.356;2022-10-16T06:58:52;14.60;99.90
40822;DHT22;26542;50.836;5.356;2022-10-16T07:01:20;14.60;99.90
40822;DHT22;26542;50.836;5.356;2022-10-16T07:03:46;14.60;99.90
40822;DHT22;26542;50.836;5.356;2022-10-16T07:06:18;14.50;99.90
40822;DHT22;26542;50.836;5.356;2022-10-16T07:24:15;14.90;99.90
40822;DHT22;26542;50.836;5.356;2022-10-16T07:26:44;15.00;99.90
40822;DHT22;26542;50.836;5.356;2022-10-16T07:29:19;14.90;99.90
40822;DHT22;26542;50.836;5.356;2022-10-16T07:31:46;15.00;99.90
40822;DHT22;26542;50.836;5.356;2022-10-16T07:34:13;15.10;99.90
40822;DHT22;26542;50.836;5.356;2022-10-16T07:36:48;15.10;99.90
40822;DHT22;26542;50.836;5.356;2022-10-16T07:39:14;15.10;99.90
40822;DHT22;26542;50.836;5.356;2022-10-16T07:41:46;15.20;99.90
40822;DHT22;26542;50.836;5.356;2022-10-16T07:44:21;15.30;99.90
40822;DHT22;26542;50.836;5.356;2022-10-16T07:46:51;15.30;99.90
40822;DHT22;26542;50.836;5.356;2022-10-16T07:50:14;15.40;99.90
40822;DHT22;26542;50.836;5.356;2022-10-16T07:53:10;15.50;99.90
40822;DHT22;26542;50.836;5.356;2022-10-16T07:55:36;15.60;99.90
40822;DHT22;26542;50.836;5.356;2022-10-16T07:58:02;15.60;99.90
40822;DHT22;26542;50.836;5.356;2022-10-16T08:00:28;15.70;99.90
40822;DHT22;26542;50.836;5.356;2022-10-16T08:02:53;15.70;99.90
40822;DHT22;26542;50.836;5.356;2022-10-16T08:05:19;15.70;99.90
40822;DHT22;26542;50.836;5.356;2022-10-16T08:07:49;15.80;99.90
40822;DHT22;26542;50.836;5.356;2022-10-16T08:10:20;15.90;99.90
40822;DHT22;26542;50.836;5.356;2022-10-16T08:12:45;16.00;99.90
40822;DHT22;26542;50.836;5.356;2022-10-16T08:15:11;16.00;99.90
40822;DHT22;26542;50.836;5.356;2022-10-16T08:17:37;16.20;99.90
40822;DHT22;26542;50.836;5.356;2022-10-16T08:20:14;16.20;99.90
40822;DHT22;26542;50.836;5.356;2022-10-16T08:22:39;16.10;99.90
40822;DHT22;26542;50.836;5.356;2022-10-16T08:25:06;16.10;99.90
40822;DHT22;26542;50.836;5.356;2022-10-16T08:27:32;16.30;99.90
40822;DHT22;26542;50.836;5.356;2022-10-16T08:29:58;16.30;99.90
40822;DHT22;26542;50.836;5.356;2022-10-16T08:32:24;16.30;99.90
40822;DHT22;26542;50.836;5.356;2022-10-16T08:34:50;16.30;99.90
40822;DHT22;26542;50.836;5.356;2022-10-16T08:37:15;16.40;99.90
40822;DHT22;26542;50.836;5.356;2022-10-16T08:39:41;16.50;99.90
40822;DHT22;26542;50.836;5.356;2022-10-16T08:45:08;16.50;99.90
40822;DHT22;26542;50.836;5.356;2022-10-16T09:57:28;18.20;99.90
40822;DHT22;26542;50.836;5.356;2022-10-16T09:59:58;18.40;99.90
40822;DHT22;26542;50.836;5.356;2022-10-16T10:02:36;18.60;99.90
40822;DHT22;26542;50.836;5.356;2022-10-16T10:05:05;18.60;99.90
40822;DHT22;26542;50.836;5.356;2022-10-16T10:07:35;18.60;99.90
40822;DHT22;26542;50.836;5.356;2022-10-16T10:10:18;18.50;99.90
40822;DHT22;26542;50.836;5.356;2022-10-16T10:12:48;18.60;99.90
40822;DHT22;26542;50.836;5.356;2022-10-16T10:15:16;18.70;99.90
40822;DHT22;26542;50.836;5.356;2022-10-16T10:17:54;18.80;99.90
40822;DHT22;26542;50.836;5.356;2022-10-16T10:20:31;18.90;99.90
40822;DHT22;26542;50.836;5.356;2022-10-16T10:23:01;18.90;99.90
40822;DHT22;26542;50.836;5.356;2022-10-16T10:26:06;18.90;99.90
40822;DHT22;26542;50.836;5.356;2022-10-16T10:31:50;18.90;99.90
40822;DHT22;26542;50.836;5.356;2022-10-16T10:40:15;19.10;99.90
40822;DHT22;26542;50.836;5.356;2022-10-16T11:08:28;19.50;99.90
40822;DHT22;26542;50.836;5.356;2022-10-16T11:11:20;19.50;99.70
40822;DHT22;26542;50.836;5.356;2022-10-16T11:14:54;19.50;99.90
40822;DHT22;26542;50.836;5.356;2022-10-16T11:19:58;19.40;99.90
40822;DHT22;26542;50.836;5.356;2022-10-16T11:30:20;19.70;99.90
40822;DHT22;26542;50.836;5.356;2022-10-16T11:38:30;20.30;99.70
40822;DHT22;26542;50.836;5.356;2022-10-16T11:41:08;20.40;98.90
40822;DHT22;26542;50.836;5.356;2022-10-16T11:43:42;20.40;98.90
40822;DHT22;26542;50.836;5.356;2022-10-16T11:46:13;20.50;99.50
40822;DHT22;26542;50.836;5.356;2022-10-16T11:49:03;20.70;99.70
40822;DHT22;26542;50.836;5.356;2022-10-16T11:51:38;20.80;98.00
40822;DHT22;26542;50.836;5.356;2022-10-16T11:54:26;20.70;98.20
40822;DHT22;26542;50.836;5.356;2022-10-16T11:56:57;20.60;98.40
40822;DHT22;26542;50.836;5.356;2022-10-16T11:59:54;20.50;97.80
40822;DHT22;26542;50.836;5.356;2022-10-16T12:02:44;20.50;98.10
40822;DHT22;26542;50.836;5.356;2022-10-16T12:05:44;20.60;98.50
40822;DHT22;26542;50.836;5.356;2022-10-16T12:08:15;20.70;97.90
40822;DHT22;26542;50.836;5.356;2022-10-16T12:10:44;20.80;98.60
40822;DHT22;26542;50.836;5.356;2022-10-16T12:13:33;20.80;98.30
40822;DHT22;26542;50.836;5.356;2022-10-16T12:18:38;20.90;98.00
40822;DHT22;26542;50.836;5.356;2022-10-16T12:21:05;21.00;98.20
40822;DHT22;26542;50.836;5.356;2022-10-16T12:23:36;21.20;97.80
40822;DHT22;26542;50.836;5.356;2022-10-16T12:26:03;21.30;97.10
40822;DHT22;26542;50.836;5.356;2022-10-16T12:28:32;21.60;97.00
40822;DHT22;26542;50.836;5.356;2022-10-16T12:31:01;21.80;96.20
40822;DHT22;26542;50.836;5.356;2022-10-16T12:33:30;21.90;96.20
40822;DHT22;26542;50.836;5.356;2022-10-16T12:35:58;22.10;96.30
40822;DHT22;26542;50.836;5.356;2022-10-16T12:38:37;22.10;95.90
40822;DHT22;26542;50.836;5.356;2022-10-16T12:41:06;22.10;95.10
40822;DHT22;26542;50.836;5.356;2022-10-16T12:43:43;22.00;95.20
40822;DHT22;26542;50.836;5.356;2022-10-16T12:48:37;21.80;94.60
40822;DHT22;26542;50.836;5.356;2022-10-16T12:51:33;21.80;94.60
40822;DHT22;26542;50.836;5.356;2022-10-16T13:00:28;21.70;94.00
40822;DHT22;26542;50.836;5.356;2022-10-16T13:03:12;21.70;94.10
40822;DHT22;26542;50.836;5.356;2022-10-16T13:28:22;21.70;93.70
40822;DHT22;26542;50.836;5.356;2022-10-16T13:30:54;21.80;94.30
40822;DHT22;26542;50.836;5.356;2022-10-16T13:36:02;21.80;94.20
40822;DHT22;26542;50.836;5.356;2022-10-16T13:38:32;21.90;94.40
40822;DHT22;26542;50.836;5.356;2022-10-16T13:41:02;21.90;94.30
40822;DHT22;26542;50.836;5.356;2022-10-16T13:43:37;22.00;94.30
40822;DHT22;26542;50.836;5.356;2022-10-16T13:48:37;21.80;93.70
40822;DHT22;26542;50.836;5.356;2022-10-16T13:51:13;22.10;93.30
40822;DHT22;26542;50.836;5.356;2022-10-16T13:53:39;21.80;93.80
40822;DHT22;26542;50.836;5.356;2022-10-16T13:56:10;21.60;93.80
40822;DHT22;26542;50.836;5.356;2022-10-16T13:58:36;21.60;93.80
40822;DHT22;26542;50.836;5.356;2022-10-16T14:01:05;21.50;94.50
40822;DHT22;26542;50.836;5.356;2022-10-16T14:03:32;21.50;95.50
40822;DHT22;26542;50.836;5.356;2022-10-16T14:06:04;21.50;95.60
40822;DHT22;26542;50.836;5.356;2022-10-16T14:08:32;21.50;96.40
40822;DHT22;26542;50.836;5.356;2022-10-16T14:11:00;21.50;96.50
40822;DHT22;26542;50.836;5.356;2022-10-16T14:13:46;21.50;96.00
40822;DHT22;26542;50.836;5.356;2022-10-16T14:16:21;21.50;96.00
40822;DHT22;26542;50.836;5.356;2022-10-16T14:21:22;21.40;96.00
40822;DHT22;26542;50.836;5.356;2022-10-16T14:23:48;21.50;97.70
40822;DHT22;26542;50.836;5.356;2022-10-16T14:26:16;21.40;97.80
40822;DHT22;26542;50.836;5.356;2022-10-16T14:28:46;21.50;98.10
40822;DHT22;26542;50.836;5.356;2022-10-16T14:31:32;21.40;98.30
40822;DHT22;26542;50.836;5.356;2022-10-16T14:33:59;21.50;97.90
40822;DHT22;26542;50.836;5.356;2022-10-16T14:36:27;21.50;98.60
40822;DHT22;26542;50.836;5.356;2022-10-16T14:41:24;21.50;98.40
40822;DHT22;26542;50.836;5.356;2022-10-16T14:43:55;21.50;98.00
40822;DHT22;26542;50.836;5.356;2022-10-16T14:46:28;21.50;98.10
40822;DHT22;26542;50.836;5.356;2022-10-16T14:49:02;21.50;97.40
40822;DHT22;26542;50.836;5.356;2022-10-16T14:51:29;21.50;97.70
40822;DHT22;26542;50.836;5.356;2022-10-16T14:53:56;21.50;98.30
40822;DHT22;26542;50.836;5.356;2022-10-16T14:56:29;21.40;98.60
40822;DHT22;26542;50.836;5.356;2022-10-16T14:58:55;21.50;98.00
40822;DHT22;26542;50.836;5.356;2022-10-16T15:01:21;21.60;97.50
40822;DHT22;26542;50.836;5.356;2022-10-16T15:03:48;21.50;97.60
40822;DHT22;26542;50.836;5.356;2022-10-16T15:06:15;21.40;97.80
40822;DHT22;26542;50.836;5.356;2022-10-16T15:08:41;21.40;97.90
40822;DHT22;26542;50.836;5.356;2022-10-16T15:11:18;21.30;98.10
40822;DHT22;26542;50.836;5.356;2022-10-16T15:13:45;21.30;98.40
40822;DHT22;26542;50.836;5.356;2022-10-16T15:16:13;21.30;98.50
40822;DHT22;26542;50.836;5.356;2022-10-16T15:18:39;21.20;99.00
40822;DHT22;26542;50.836;5.356;2022-10-16T15:21:05;21.20;99.50
40822;DHT22;26542;50.836;5.356;2022-10-16T15:23:32;21.20;99.90
40822;DHT22;26542;50.836;5.356;2022-10-16T15:25:58;21.10;99.90
40822;DHT22;26542;50.836;5.356;2022-10-16T15:28:28;21.20;99.90
40822;DHT22;26542;50.836;5.356;2022-10-16T15:30:56;21.10;99.90
40822;DHT22;26542;50.836;5.356;2022-10-16T15:33:25;21.10;99.90
40822;DHT22;26542;50.836;5.356;2022-10-16T15:35:59;21.10;99.90
40822;DHT22;26542;50.836;5.356;2022-10-16T15:38:26;21.10;99.90
40822;DHT22;26542;50.836;5.356;2022-10-16T15:40:52;21.10;99.90
40822;DHT22;26542;50.836;5.356;2022-10-16T15:43:18;21.00;99.90
40822;DHT22;26542;50.836;5.356;2022-10-16T15:45:47;20.90;99.90
40822;DHT22;26542;50.836;5.356;2022-10-16T15:48:20;20.90;99.70
40822;DHT22;26542;50.836;5.356;2022-10-16T15:50:46;20.80;99.90
40822;DHT22;26542;50.836;5.356;2022-10-16T15:53:12;20.70;99.90
40822;DHT22;26542;50.836;5.356;2022-10-16T15:55:38;20.70;99.90
40822;DHT22;26542;50.836;5.356;2022-10-16T15:58:04;20.70;99.90
40822;DHT22;26542;50.836;5.356;2022-10-16T16:00:30;20.60;99.90
40822;DHT22;26542;50.836;5.356;2022-10-16T16:02:56;20.50;99.90
40822;DHT22;26542;50.836;5.356;2022-10-16T16:05:23;20.50;99.90
40822;DHT22;26542;50.836;5.356;2022-10-16T16:07:50;20.50;99.90
40822;DHT22;26542;50.836;5.356;2022-10-16T16:10:16;20.40;99.90
40822;DHT22;26542;50.836;5.356;2022-10-16T16:12:46;20.40;99.90
40822;DHT22;26542;50.836;5.356;2022-10-16T16:15:17;20.40;99.90
40822;DHT22;26542;50.836;5.356;2022-10-16T16:17:43;20.30;99.90
40822;DHT22;26542;50.836;5.356;2022-10-16T16:20:10;20.30;99.90
40822;DHT22;26542;50.836;5.356;2022-10-16T16:22:36;20.20;99.90
40822;DHT22;26542;50.836;5.356;2022-10-16T16:25:03;20.20;99.90
40822;DHT22;26542;50.836;5.356;2022-10-16T16:27:29;20.10;99.90
40822;DHT22;26542;50.836;5.356;2022-10-16T16:29:59;20.00;99.90
40822;DHT22;26542;50.836;5.356;2022-10-16T16:32:28;19.90;99.90
40822;DHT22;26542;50.836;5.356;2022-10-16T16:34:53;19.90;99.90
40822;DHT22;26542;50.836;5.356;2022-10-16T16:37:19;19.80;99.90
40822;DHT22;26542;50.836;5.356;2022-10-16T16:39:47;19.70;99.90
40822;DHT22;26542;50.836;5.356;2022-10-16T16:42:13;19.70;99.90
40822;DHT22;26542;50.836;5.356;2022-10-16T16:44:39;19.60;99.90
40822;DHT22;26542;50.836;5.356;2022-10-16T16:47:05;19.60;99.90
40822;DHT22;26542;50.836;5.356;2022-10-16T16:49:31;19.50;99.90
40822;DHT22;26542;50.836;5.356;2022-10-16T16:51:57;19.50;99.90
40822;DHT22;26542;50.836;5.356;2022-10-16T16:54:22;19.50;99.90
40822;DHT22;26542;50.836;5.356;2022-10-16T16:56:48;19.40;99.90
40822;DHT22;26542;50.836;5.356;2022-10-16T16:59:16;19.40;99.90
40822;DHT22;26542;50.836;5.356;2022-10-16T17:01:43;19.30;99.90
40822;DHT22;26542;50.836;5.356;2022-10-16T17:04:09;19.30;99.90
40822;DHT22;26542;50.836;5.356;2022-10-16T17:06:36;19.30;99.90
40822;DHT22;26542;50.836;5.356;2022-10-16T17:09:02;19.20;99.90
40822;DHT22;26542;50.836;5.356;2022-10-16T17:11:29;19.10;99.90
40822;DHT22;26542;50.836;5.356;2022-10-16T17:13:59;19.20;99.90
40822;DHT22;26542;50.836;5.356;2022-10-16T17:16:29;19.10;99.90
40822;DHT22;26542;50.836;5.356;2022-10-16T17:18:55;19.10;99.90
40822;DHT22;26542;50.836;5.356;2022-10-16T17:21:21;19.00;99.90
40822;DHT22;26542;50.836;5.356;2022-10-16T17:23:47;19.00;99.90
40822;DHT22;26542;50.836;5.356;2022-10-16T17:26:16;18.90;99.90
40822;DHT22;26542;50.836;5.356;2022-10-16T17:28:43;18.80;99.90
40822;DHT22;26542;50.836;5.356;2022-10-16T17:31:15;18.90;99.90
40822;DHT22;26542;50.836;5.356;2022-10-16T17:33:42;18.80;99.90
40822;DHT22;26542;50.836;5.356;2022-10-16T17:36:10;18.80;99.90
40822;DHT22;26542;50.836;5.356;2022-10-16T17:38:36;18.70;99.90
40822;DHT22;26542;50.836;5.356;2022-10-16T17:41:22;18.80;99.90
40822;DHT22;26542;50.836;5.356;2022-10-16T17:43:49;18.80;99.90
40822;DHT22;26542;50.836;5.356;2022-10-16T17:46:19;18.80;99.90
40822;DHT22;26542;50.836;5.356;2022-10-16T17:48:47;18.70;99.90
40822;DHT22;26542;50.836;5.356;2022-10-16T17:51:17;18.70;99.90
40822;DHT22;26542;50.836;5.356;2022-10-16T17:53:50;18.70;99.90
40822;DHT22;26542;50.836;5.356;2022-10-16T17:56:17;18.70;99.90
40822;DHT22;26542;50.836;5.356;2022-10-16T17:58:43;18.70;99.90
40822;DHT22;26542;50.836;5.356;2022-10-16T18:01:28;18.70;99.90
40822;DHT22;26542;50.836;5.356;2022-10-16T18:04:14;18.70;99.90
40822;DHT22;26542;50.836;5.356;2022-10-16T18:06:42;18.70;99.90
40822;DHT22;26542;50.836;5.356;2022-10-16T18:09:10;18.60;99.90
40822;DHT22;26542;50.836;5.356;2022-10-16T18:11:37;18.50;99.90
40822;DHT22;26542;50.836;5.356;2022-10-16T18:14:03;18.50;99.90
40822;DHT22;26542;50.836;5.356;2022-10-16T18:16:30;18.50;99.90
40822;DHT22;26542;50.836;5.356;2022-10-16T18:18:56;18.50;99.90
40822;DHT22;26542;50.836;5.356;2022-10-16T18:21:24;18.50;99.90
40822;DHT22;26542;50.836;5.356;2022-10-16T18:23:52;18.50;99.90
40822;DHT22;26542;50.836;5.356;2022-10-16T18:26:20;18.40;99.90
40822;DHT22;26542;50.836;5.356;2022-10-16T18:28:47;18.50;99.90
40822;DHT22;26542;50.836;5.356;2022-10-16T18:31:16;18.40;99.90
40822;DHT22;26542;50.836;5.356;2022-10-16T18:33:43;18.40;99.90
40822;DHT22;26542;50.836;5.356;2022-10-16T18:36:15;18.40;99.90
40822;DHT22;26542;50.836;5.356;2022-10-16T18:38:41;18.30;99.90
40822;DHT22;26542;50.836;5.356;2022-10-16T18:41:07;18.30;99.90
40822;DHT22;26542;50.836;5.356;2022-10-16T18:43:34;18.20;99.90
40822;DHT22;26542;50.836;5.356;2022-10-16T18:46:02;18.30;99.90
40822;DHT22;26542;50.836;5.356;2022-10-16T18:48:30;18.20;99.90
40822;DHT22;26542;50.836;5.356;2022-10-16T18:53:33;18.10;99.90
40822;DHT22;26542;50.836;5.356;2022-10-16T18:55:58;18.10;99.90
40822;DHT22;26542;50.836;5.356;2022-10-16T18:58:24;18.10;99.90
40822;DHT22;26542;50.836;5.356;2022-10-16T19:00:50;18.10;99.90
40822;DHT22;26542;50.836;5.356;2022-10-16T19:03:15;18.10;99.90
40822;DHT22;26542;50.836;5.356;2022-10-16T19:05:43;18.10;99.90
40822;DHT22;26542;50.836;5.356;2022-10-16T19:08:11;18.10;99.90
40822;DHT22;26542;50.836;5.356;2022-10-16T19:10:38;18.10;99.90